Altay, China
Current Conditions -  °F | °C
As of 12:00 AM on Sunday 26 Oct 2014 (Local Time) from ZWWW Reporting Station
Clear Clear  
Wind Chill: 55°   Ceiling: Unl
Heat Index: 55°   Visibility: 4mi
Dew Point: 45°   Wind: 7mph
Humidity: 67%   Direction: 150°SSE
Pressure: 30.09"   Gusts: NA
Location:  47.84°N, 88.13°E
Report Text: ZWWW 251600Z 15003MPS 110V180 6000 NSC 13/07 Q1019 NOSIG
Loading
Personal Weather Stations






























Interactive Weather Map
Tropical Storm Tracking
New forecast layout! Learn more

10-Day Weather Forecast

Advertisements
Track Severe Weather on mobile